createdAt,value
2022-10-12T00:14:51.639Z,10.66
2022-10-12T00:29:54.482Z,10.40
2022-10-12T00:44:56.419Z,10.22
2022-10-12T01:00:05.271Z,10.04
2022-10-12T01:15:07.281Z,9.84
2022-10-12T01:30:09.126Z,9.73
2022-10-12T01:45:15.239Z,9.65
2022-10-12T02:00:17.255Z,9.38
2022-10-12T02:15:19.167Z,9.38
2022-10-12T02:30:21.410Z,9.37
2022-10-12T02:45:23.873Z,9.38
2022-10-12T03:00:26.618Z,9.18
2022-10-12T03:15:29.378Z,9.19
2022-10-12T03:30:32.799Z,8.92
2022-10-12T03:45:34.658Z,8.95
2022-10-12T04:00:37.391Z,9.03
2022-10-12T04:15:39.628Z,9.11
2022-10-12T04:30:41.506Z,9.13
2022-10-12T04:45:43.379Z,9.25
2022-10-12T05:00:46.952Z,9.64
2022-10-12T05:15:50.477Z,9.89
2022-10-12T05:30:53.975Z,9.69
2022-10-12T05:45:55.867Z,9.55
2022-10-12T06:01:04.829Z,9.68
2022-10-12T06:16:06.771Z,9.53
2022-10-12T06:31:09.934Z,9.41
2022-10-12T06:46:13.439Z,9.64
2022-10-12T07:01:15.967Z,10.31
2022-10-12T07:16:18.125Z,10.66
2022-10-12T07:31:21.061Z,11.51
2022-10-12T07:46:22.931Z,12.44
2022-10-12T08:01:26.702Z,13.19
2022-10-12T08:16:29.527Z,15.01
2022-10-12T08:31:32.172Z,15.22
2022-10-12T08:46:35.953Z,15.20
2022-10-12T09:01:58.298Z,14.74
2022-10-12T09:17:00.826Z,15.50
2022-10-12T09:32:02.804Z,15.03
2022-10-12T09:47:05.167Z,14.86
2022-10-12T10:02:10.606Z,15.16
2022-10-12T10:17:33.548Z,15.22
2022-10-12T10:32:35.443Z,15.27
2022-10-12T10:47:43.751Z,15.43
2022-10-12T11:02:48.802Z,14.80
2022-10-12T11:17:51.975Z,15.41
2022-10-12T11:33:01.401Z,15.18
2022-10-12T11:48:05.447Z,14.84
2022-10-12T12:03:18.998Z,15.10
2022-10-12T12:18:21.652Z,15.27
2022-10-12T12:33:27.666Z,15.39
2022-10-12T12:48:38.736Z,15.48
2022-10-12T13:03:59.635Z,15.55
2022-10-12T13:19:05.681Z,15.72
2022-10-12T13:34:07.580Z,15.92
2022-10-12T13:49:12.390Z,15.08
2022-10-12T14:04:14.335Z,14.90
2022-10-12T14:19:33.189Z,14.70
2022-10-12T14:34:36.644Z,14.14
2022-10-12T14:49:39.669Z,13.98
2022-10-12T15:04:41.603Z,13.96
2022-10-12T15:19:43.592Z,13.79
2022-10-12T15:34:45.449Z,13.80
2022-10-12T15:49:47.358Z,13.49
2022-10-12T16:04:49.244Z,13.08
2022-10-12T16:19:51.151Z,12.69
2022-10-12T16:34:53.987Z,12.46
2022-10-12T16:49:55.874Z,12.42
2022-10-12T17:04:58.386Z,12.25
2022-10-12T17:35:02.128Z,12.08
2022-10-12T17:50:04.086Z,11.83
2022-10-12T18:05:05.985Z,11.60
2022-10-12T18:20:08.078Z,11.26
2022-10-12T18:35:09.987Z,11.12
2022-10-12T18:50:11.868Z,10.97
2022-10-12T19:05:13.748Z,10.97
2022-10-12T19:20:15.694Z,10.84
2022-10-12T19:35:17.572Z,10.74
2022-10-12T19:50:19.422Z,10.88
2022-10-12T20:05:21.366Z,10.84
2022-10-12T20:20:23.274Z,11.15
2022-10-12T20:35:25.134Z,11.19
2022-10-12T20:50:26.990Z,11.08
2022-10-12T21:05:28.836Z,10.88
2022-10-12T21:20:30.684Z,10.91
2022-10-12T21:35:32.549Z,10.77
2022-10-12T21:50:34.566Z,10.68
2022-10-12T22:05:42.831Z,10.70
2022-10-12T22:20:44.687Z,10.78
2022-10-12T22:35:53.544Z,10.33
2022-10-12T22:50:55.438Z,9.98
2022-10-12T23:05:57.314Z,9.48
2022-10-12T23:20:59.183Z,9.12
2022-10-12T23:36:02.142Z,9.41
2022-10-12T23:51:07.944Z,9.65
